sensor_id;sensor_type;location;lat;lon;timestamp;P1;P2;P0
82667;PMS5003;72691;51.374;-0.176;2024-01-11T00:01:27;13;13;
82667;PMS5003;72691;51.374;-0.176;2024-01-11T00:03:52;15;14;
82667;PMS5003;72691;51.374;-0.176;2024-01-11T00:06:17;15;14;
82667;PMS5003;72691;51.374;-0.176;2024-01-11T00:08:43;14;12;
82667;PMS5003;72691;51.374;-0.176;2024-01-11T00:11:08;16;15;
82667;PMS5003;72691;51.374;-0.176;2024-01-11T00:13:34;16;13;
82667;PMS5003;72691;51.374;-0.176;2024-01-11T00:15:59;14;14;
82667;PMS5003;72691;51.374;-0.176;2024-01-11T00:18:25;15;14;
82667;PMS5003;72691;51.374;-0.176;2024-01-11T00:20:51;11;11;
82667;PMS5003;72691;51.374;-0.176;2024-01-11T00:23:16;14;13;
82667;PMS5003;72691;51.374;-0.176;2024-01-11T00:25:41;17;16;
82667;PMS5003;72691;51.374;-0.176;2024-01-11T00:28:07;13;13;
82667;PMS5003;72691;51.374;-0.176;2024-01-11T00:30:32;15;15;
82667;PMS5003;72691;51.374;-0.176;2024-01-11T00:32:58;15;14;
82667;PMS5003;72691;51.374;-0.176;2024-01-11T00:35:23;15;14;
82667;PMS5003;72691;51.374;-0.176;2024-01-11T00:37:49;17;14;
82667;PMS5003;72691;51.374;-0.176;2024-01-11T00:40:14;18;17;
82667;PMS5003;72691;51.374;-0.176;2024-01-11T00:42:40;18;16;
82667;PMS5003;72691;51.374;-0.176;2024-01-11T00:45:05;22;19;
82667;PMS5003;72691;51.374;-0.176;2024-01-11T00:47:30;18;16;
82667;PMS5003;72691;51.374;-0.176;2024-01-11T00:49:55;19;18;
82667;PMS5003;72691;51.374;-0.176;2024-01-11T00:52:21;18;18;
82667;PMS5003;72691;51.374;-0.176;2024-01-11T00:54:46;19;18;
82667;PMS5003;72691;51.374;-0.176;2024-01-11T00:57:12;15;15;
82667;PMS5003;72691;51.374;-0.176;2024-01-11T00:59:39;15;14;
82667;PMS5003;72691;51.374;-0.176;2024-01-11T01:02:03;18;15;
82667;PMS5003;72691;51.374;-0.176;2024-01-11T01:04:29;16;16;
82667;PMS5003;72691;51.374;-0.176;2024-01-11T01:06:54;21;18;
82667;PMS5003;72691;51.374;-0.176;2024-01-11T01:09:20;16;16;
82667;PMS5003;72691;51.374;-0.176;2024-01-11T01:11:45;14;14;
82667;PMS5003;72691;51.374;-0.176;2024-01-11T01:14:12;18;15;
82667;PMS5003;72691;51.374;-0.176;2024-01-11T01:16:36;18;18;
82667;PMS5003;72691;51.374;-0.176;2024-01-11T01:19:02;18;16;
82667;PMS5003;72691;51.374;-0.176;2024-01-11T01:21:27;20;18;
82667;PMS5003;72691;51.374;-0.176;2024-01-11T01:23:52;15;14;
82667;PMS5003;72691;51.374;-0.176;2024-01-11T01:26:18;18;16;
82667;PMS5003;72691;51.374;-0.176;2024-01-11T01:28:43;20;19;
82667;PMS5003;72691;51.374;-0.176;2024-01-11T01:31:09;17;17;
82667;PMS5003;72691;51.374;-0.176;2024-01-11T01:33:34;19;16;
82667;PMS5003;72691;51.374;-0.176;2024-01-11T01:36:00;15;15;
82667;PMS5003;72691;51.374;-0.176;2024-01-11T01:38:25;18;17;
82667;PMS5003;72691;51.374;-0.176;2024-01-11T01:40:51;20;19;
82667;PMS5003;72691;51.374;-0.176;2024-01-11T01:43:16;16;15;
82667;PMS5003;72691;51.374;-0.176;2024-01-11T01:45:42;17;17;
82667;PMS5003;72691;51.374;-0.176;2024-01-11T01:48:07;16;16;
82667;PMS5003;72691;51.374;-0.176;2024-01-11T01:50:32;15;15;
82667;PMS5003;72691;51.374;-0.176;2024-01-11T01:52:57;15;15;
82667;PMS5003;72691;51.374;-0.176;2024-01-11T01:55:23;18;18;
82667;PMS5003;72691;51.374;-0.176;2024-01-11T01:57:49;20;19;
82667;PMS5003;72691;51.374;-0.176;2024-01-11T02:00:14;19;19;
82667;PMS5003;72691;51.374;-0.176;2024-01-11T02:02:40;18;16;
82667;PMS5003;72691;51.374;-0.176;2024-01-11T02:05:05;16;16;
82667;PMS5003;72691;51.374;-0.176;2024-01-11T02:07:30;18;18;
82667;PMS5003;72691;51.374;-0.176;2024-01-11T02:09:55;15;15;
82667;PMS5003;72691;51.374;-0.176;2024-01-11T02:12:21;16;15;
82667;PMS5003;72691;51.374;-0.176;2024-01-11T02:14:46;15;15;
82667;PMS5003;72691;51.374;-0.176;2024-01-11T02:17:12;25;20;
82667;PMS5003;72691;51.374;-0.176;2024-01-11T02:19:38;15;14;
82667;PMS5003;72691;51.374;-0.176;2024-01-11T02:22:05;16;16;
82667;PMS5003;72691;51.374;-0.176;2024-01-11T02:24:28;18;18;
82667;PMS5003;72691;51.374;-0.176;2024-01-11T02:26:58;17;17;
82667;PMS5003;72691;51.374;-0.176;2024-01-11T02:29:20;15;14;
82667;PMS5003;72691;51.374;-0.176;2024-01-11T02:31:46;16;15;
82667;PMS5003;72691;51.374;-0.176;2024-01-11T02:34:11;20;19;
82667;PMS5003;72691;51.374;-0.176;2024-01-11T02:36:37;20;19;
82667;PMS5003;72691;51.374;-0.176;2024-01-11T02:39:02;18;17;
82667;PMS5003;72691;51.374;-0.176;2024-01-11T02:41:28;17;17;
82667;PMS5003;72691;51.374;-0.176;2024-01-11T02:43:53;21;18;
82667;PMS5003;72691;51.374;-0.176;2024-01-11T02:46:18;17;15;
82667;PMS5003;72691;51.374;-0.176;2024-01-11T02:48:44;23;21;
82667;PMS5003;72691;51.374;-0.176;2024-01-11T02:51:09;19;18;
82667;PMS5003;72691;51.374;-0.176;2024-01-11T02:53:35;19;19;
82667;PMS5003;72691;51.374;-0.176;2024-01-11T02:56:00;18;18;
82667;PMS5003;72691;51.374;-0.176;2024-01-11T02:58:25;22;21;
82667;PMS5003;72691;51.374;-0.176;2024-01-11T03:00:51;19;18;
82667;PMS5003;72691;51.374;-0.176;2024-01-11T03:03:17;17;17;
82667;PMS5003;72691;51.374;-0.176;2024-01-11T03:05:47;21;19;
82667;PMS5003;72691;51.374;-0.176;2024-01-11T03:08:07;20;17;
82667;PMS5003;72691;51.374;-0.176;2024-01-11T03:10:33;18;18;
82667;PMS5003;72691;51.374;-0.176;2024-01-11T03:12:59;21;19;
82667;PMS5003;72691;51.374;-0.176;2024-01-11T03:15:24;18;17;
82667;PMS5003;72691;51.374;-0.176;2024-01-11T03:17:49;22;20;
82667;PMS5003;72691;51.374;-0.176;2024-01-11T03:20:15;18;18;
82667;PMS5003;72691;51.374;-0.176;2024-01-11T03:22:45;20;20;
82667;PMS5003;72691;51.374;-0.176;2024-01-11T03:25:06;24;21;
82667;PMS5003;72691;51.374;-0.176;2024-01-11T03:27:31;21;20;
82667;PMS5003;72691;51.374;-0.176;2024-01-11T03:29:56;24;22;
82667;PMS5003;72691;51.374;-0.176;2024-01-11T03:32:22;17;17;
82667;PMS5003;72691;51.374;-0.176;2024-01-11T03:34:48;19;18;
82667;PMS5003;72691;51.374;-0.176;2024-01-11T03:37:13;22;21;
82667;PMS5003;72691;51.374;-0.176;2024-01-11T03:39:39;15;15;
82667;PMS5003;72691;51.374;-0.176;2024-01-11T03:42:04;23;22;
82667;PMS5003;72691;51.374;-0.176;2024-01-11T03:44:30;22;19;
82667;PMS5003;72691;51.374;-0.176;2024-01-11T03:46:55;18;18;
82667;PMS5003;72691;51.374;-0.176;2024-01-11T03:49:20;35;32;
82667;PMS5003;72691;51.374;-0.176;2024-01-11T03:51:45;26;26;
82667;PMS5003;72691;51.374;-0.176;2024-01-11T03:54:11;27;26;
82667;PMS5003;72691;51.374;-0.176;2024-01-11T03:56:37;27;25;
82667;PMS5003;72691;51.374;-0.176;2024-01-11T03:59:01;23;22;
82667;PMS5003;72691;51.374;-0.176;2024-01-11T04:01:27;23;22;
82667;PMS5003;72691;51.374;-0.176;2024-01-11T04:03:53;25;21;
82667;PMS5003;72691;51.374;-0.176;2024-01-11T04:06:19;27;23;
82667;PMS5003;72691;51.374;-0.176;2024-01-11T04:08:44;27;23;
82667;PMS5003;72691;51.374;-0.176;2024-01-11T04:11:09;24;24;
82667;PMS5003;72691;51.374;-0.176;2024-01-11T04:13:34;24;24;
82667;PMS5003;72691;51.374;-0.176;2024-01-11T04:16:03;27;26;
82667;PMS5003;72691;51.374;-0.176;2024-01-11T04:18:26;30;30;
82667;PMS5003;72691;51.374;-0.176;2024-01-11T04:20:51;34;28;
82667;PMS5003;72691;51.374;-0.176;2024-01-11T04:23:16;31;23;
82667;PMS5003;72691;51.374;-0.176;2024-01-11T04:25:43;21;21;
82667;PMS5003;72691;51.374;-0.176;2024-01-11T04:28:08;27;25;
82667;PMS5003;72691;51.374;-0.176;2024-01-11T04:30:33;30;28;
82667;PMS5003;72691;51.374;-0.176;2024-01-11T04:32:59;29;29;
82667;PMS5003;72691;51.374;-0.176;2024-01-11T04:35:24;31;29;
82667;PMS5003;72691;51.374;-0.176;2024-01-11T04:37:50;26;26;
82667;PMS5003;72691;51.374;-0.176;2024-01-11T04:40:15;26;24;
82667;PMS5003;72691;51.374;-0.176;2024-01-11T04:42:41;30;26;
82667;PMS5003;72691;51.374;-0.176;2024-01-11T04:45:07;26;26;
82667;PMS5003;72691;51.374;-0.176;2024-01-11T04:47:32;24;23;
82667;PMS5003;72691;51.374;-0.176;2024-01-11T04:49:58;27;24;
82667;PMS5003;72691;51.374;-0.176;2024-01-11T04:52:23;28;27;
82667;PMS5003;72691;51.374;-0.176;2024-01-11T04:54:48;27;26;
82667;PMS5003;72691;51.374;-0.176;2024-01-11T04:57:14;26;24;
82667;PMS5003;72691;51.374;-0.176;2024-01-11T04:59:39;28;27;
82667;PMS5003;72691;51.374;-0.176;2024-01-11T05:02:05;32;29;
82667;PMS5003;72691;51.374;-0.176;2024-01-11T05:04:32;28;28;
82667;PMS5003;72691;51.374;-0.176;2024-01-11T05:06:57;28;28;
82667;PMS5003;72691;51.374;-0.176;2024-01-11T05:09:22;32;31;
82667;PMS5003;72691;51.374;-0.176;2024-01-11T05:11:47;28;27;
82667;PMS5003;72691;51.374;-0.176;2024-01-11T05:14:13;26;26;
82667;PMS5003;72691;51.374;-0.176;2024-01-11T05:16:39;27;26;
82667;PMS5003;72691;51.374;-0.176;2024-01-11T05:19:05;26;24;
82667;PMS5003;72691;51.374;-0.176;2024-01-11T05:21:31;31;30;
82667;PMS5003;72691;51.374;-0.176;2024-01-11T05:23:56;25;25;
82667;PMS5003;72691;51.374;-0.176;2024-01-11T05:26:22;31;29;
82667;PMS5003;72691;51.374;-0.176;2024-01-11T05:28:48;27;23;
82667;PMS5003;72691;51.374;-0.176;2024-01-11T05:31:13;23;20;
82667;PMS5003;72691;51.374;-0.176;2024-01-11T05:33:39;26;26;
82667;PMS5003;72691;51.374;-0.176;2024-01-11T05:36:05;31;29;
82667;PMS5003;72691;51.374;-0.176;2024-01-11T05:38:30;26;24;
82667;PMS5003;72691;51.374;-0.176;2024-01-11T05:40:56;33;33;
82667;PMS5003;72691;51.374;-0.176;2024-01-11T05:43:22;31;25;
82667;PMS5003;72691;51.374;-0.176;2024-01-11T05:45:47;31;29;
82667;PMS5003;72691;51.374;-0.176;2024-01-11T05:48:12;23;23;
82667;PMS5003;72691;51.374;-0.176;2024-01-11T05:50:38;26;26;
82667;PMS5003;72691;51.374;-0.176;2024-01-11T05:53:03;32;28;
82667;PMS5003;72691;51.374;-0.176;2024-01-11T05:55:29;29;29;
82667;PMS5003;72691;51.374;-0.176;2024-01-11T05:57:54;33;32;
82667;PMS5003;72691;51.374;-0.176;2024-01-11T06:00:20;28;28;
82667;PMS5003;72691;51.374;-0.176;2024-01-11T06:02:46;35;29;
82667;PMS5003;72691;51.374;-0.176;2024-01-11T06:05:11;31;27;
82667;PMS5003;72691;51.374;-0.176;2024-01-11T06:07:37;26;25;
82667;PMS5003;72691;51.374;-0.176;2024-01-11T06:10:03;30;29;
82667;PMS5003;72691;51.374;-0.176;2024-01-11T06:12:28;35;33;
82667;PMS5003;72691;51.374;-0.176;2024-01-11T06:14:54;28;26;
82667;PMS5003;72691;51.374;-0.176;2024-01-11T06:17:19;29;26;
82667;PMS5003;72691;51.374;-0.176;2024-01-11T06:19:44;34;32;
82667;PMS5003;72691;51.374;-0.176;2024-01-11T06:22:09;27;26;
82667;PMS5003;72691;51.374;-0.176;2024-01-11T06:24:35;27;27;
82667;PMS5003;72691;51.374;-0.176;2024-01-11T06:27:00;31;29;
82667;PMS5003;72691;51.374;-0.176;2024-01-11T06:29:26;32;28;
82667;PMS5003;72691;51.374;-0.176;2024-01-11T06:31:52;31;29;
82667;PMS5003;72691;51.374;-0.176;2024-01-11T06:34:18;31;29;
82667;PMS5003;72691;51.374;-0.176;2024-01-11T06:36:43;32;31;
82667;PMS5003;72691;51.374;-0.176;2024-01-11T06:39:09;30;29;
82667;PMS5003;72691;51.374;-0.176;2024-01-11T06:41:34;38;32;
82667;PMS5003;72691;51.374;-0.176;2024-01-11T06:43:59;29;23;
82667;PMS5003;72691;51.374;-0.176;2024-01-11T06:46:25;32;30;
82667;PMS5003;72691;51.374;-0.176;2024-01-11T06:48:51;30;27;
82667;PMS5003;72691;51.374;-0.176;2024-01-11T06:51:20;30;29;
82667;PMS5003;72691;51.374;-0.176;2024-01-11T06:53:42;37;34;
82667;PMS5003;72691;51.374;-0.176;2024-01-11T06:58:34;32;28;
82667;PMS5003;72691;51.374;-0.176;2024-01-11T07:00:59;48;44;
82667;PMS5003;72691;51.374;-0.176;2024-01-11T07:03:25;30;28;
82667;PMS5003;72691;51.374;-0.176;2024-01-11T07:05:51;30;29;
82667;PMS5003;72691;51.374;-0.176;2024-01-11T07:08:16;34;33;
82667;PMS5003;72691;51.374;-0.176;2024-01-11T07:10:41;27;23;
82667;PMS5003;72691;51.374;-0.176;2024-01-11T07:13:06;30;27;
82667;PMS5003;72691;51.374;-0.176;2024-01-11T07:15:32;29;28;
82667;PMS5003;72691;51.374;-0.176;2024-01-11T07:17:58;30;29;
82667;PMS5003;72691;51.374;-0.176;2024-01-11T07:20:23;31;26;
82667;PMS5003;72691;51.374;-0.176;2024-01-11T07:22:48;25;22;
82667;PMS5003;72691;51.374;-0.176;2024-01-11T07:25:13;30;26;
82667;PMS5003;72691;51.374;-0.176;2024-01-11T07:27:39;27;25;
82667;PMS5003;72691;51.374;-0.176;2024-01-11T07:30:05;30;25;
82667;PMS5003;72691;51.374;-0.176;2024-01-11T07:32:30;23;23;
82667;PMS5003;72691;51.374;-0.176;2024-01-11T07:34:55;25;24;
82667;PMS5003;72691;51.374;-0.176;2024-01-11T07:37:20;25;22;
82667;PMS5003;72691;51.374;-0.176;2024-01-11T07:39:46;24;21;
82667;PMS5003;72691;51.374;-0.176;2024-01-11T07:42:11;33;28;
82667;PMS5003;72691;51.374;-0.176;2024-01-11T07:44:37;30;26;
82667;PMS5003;72691;51.374;-0.176;2024-01-11T07:47:03;26;25;
82667;PMS5003;72691;51.374;-0.176;2024-01-11T07:49:28;21;21;
82667;PMS5003;72691;51.374;-0.176;2024-01-11T07:51:54;28;26;
82667;PMS5003;72691;51.374;-0.176;2024-01-11T07:54:19;33;30;
82667;PMS5003;72691;51.374;-0.176;2024-01-11T07:56:45;22;21;
82667;PMS5003;72691;51.374;-0.176;2024-01-11T07:59:12;23;21;
82667;PMS5003;72691;51.374;-0.176;2024-01-11T08:01:36;29;27;
82667;PMS5003;72691;51.374;-0.176;2024-01-11T08:04:01;26;23;
82667;PMS5003;72691;51.374;-0.176;2024-01-11T08:06:27;25;23;
82667;PMS5003;72691;51.374;-0.176;2024-01-11T08:08:53;23;23;
82667;PMS5003;72691;51.374;-0.176;2024-01-11T08:11:18;30;27;
82667;PMS5003;72691;51.374;-0.176;2024-01-11T08:13:44;27;26;
82667;PMS5003;72691;51.374;-0.176;2024-01-11T08:16:09;26;25;
82667;PMS5003;72691;51.374;-0.176;2024-01-11T08:18:34;19;18;
82667;PMS5003;72691;51.374;-0.176;2024-01-11T08:21:00;23;22;
82667;PMS5003;72691;51.374;-0.176;2024-01-11T08:23:25;23;22;
82667;PMS5003;72691;51.374;-0.176;2024-01-11T08:25:51;25;23;
82667;PMS5003;72691;51.374;-0.176;2024-01-11T08:28:16;22;22;
82667;PMS5003;72691;51.374;-0.176;2024-01-11T08:30:42;19;19;
82667;PMS5003;72691;51.374;-0.176;2024-01-11T08:33:07;23;20;
82667;PMS5003;72691;51.374;-0.176;2024-01-11T08:35:33;23;21;
82667;PMS5003;72691;51.374;-0.176;2024-01-11T08:37:58;21;19;
82667;PMS5003;72691;51.374;-0.176;2024-01-11T08:40:24;23;20;
82667;PMS5003;72691;51.374;-0.176;2024-01-11T08:42:49;23;22;
82667;PMS5003;72691;51.374;-0.176;2024-01-11T08:45:14;22;22;
82667;PMS5003;72691;51.374;-0.176;2024-01-11T08:47:40;18;16;
82667;PMS5003;72691;51.374;-0.176;2024-01-11T08:50:05;19;18;
82667;PMS5003;72691;51.374;-0.176;2024-01-11T08:52:30;24;22;
82667;PMS5003;72691;51.374;-0.176;2024-01-11T08:54:56;17;17;
82667;PMS5003;72691;51.374;-0.176;2024-01-11T08:57:21;19;19;
82667;PMS5003;72691;51.374;-0.176;2024-01-11T08:59:47;22;19;
82667;PMS5003;72691;51.374;-0.176;2024-01-11T09:02:12;16;15;
82667;PMS5003;72691;51.374;-0.176;2024-01-11T09:04:37;16;16;
82667;PMS5003;72691;51.374;-0.176;2024-01-11T09:07:03;14;14;
82667;PMS5003;72691;51.374;-0.176;2024-01-11T09:09:28;19;15;
82667;PMS5003;72691;51.374;-0.176;2024-01-11T09:11:53;14;14;
82667;PMS5003;72691;51.374;-0.176;2024-01-11T09:14:19;15;13;
82667;PMS5003;72691;51.374;-0.176;2024-01-11T09:16:44;25;23;
82667;PMS5003;72691;51.374;-0.176;2024-01-11T09:19:10;12;12;
82667;PMS5003;72691;51.374;-0.176;2024-01-11T09:21:36;13;13;
82667;PMS5003;72691;51.374;-0.176;2024-01-11T09:24:01;12;12;
82667;PMS5003;72691;51.374;-0.176;2024-01-11T09:26:27;13;13;
82667;PMS5003;72691;51.374;-0.176;2024-01-11T09:28:53;13;12;
82667;PMS5003;72691;51.374;-0.176;2024-01-11T09:31:19;10;10;
82667;PMS5003;72691;51.374;-0.176;2024-01-11T09:33:43;14;13;
82667;PMS5003;72691;51.374;-0.176;2024-01-11T09:36:09;11;11;
82667;PMS5003;72691;51.374;-0.176;2024-01-11T09:38:34;13;11;
82667;PMS5003;72691;51.374;-0.176;2024-01-11T09:41:06;14;11;
82667;PMS5003;72691;51.374;-0.176;2024-01-11T09:43:26;12;12;
82667;PMS5003;72691;51.374;-0.176;2024-01-11T09:45:51;16;15;
82667;PMS5003;72691;51.374;-0.176;2024-01-11T09:48:17;15;15;
82667;PMS5003;72691;51.374;-0.176;2024-01-11T09:50:42;15;14;
82667;PMS5003;72691;51.374;-0.176;2024-01-11T09:53:07;16;13;
82667;PMS5003;72691;51.374;-0.176;2024-01-11T09:55:33;15;13;
82667;PMS5003;72691;51.374;-0.176;2024-01-11T09:57:59;19;17;
82667;PMS5003;72691;51.374;-0.176;2024-01-11T10:00:23;14;13;
82667;PMS5003;72691;51.374;-0.176;2024-01-11T10:02:49;12;12;
82667;PMS5003;72691;51.374;-0.176;2024-01-11T10:05:15;12;11;
82667;PMS5003;72691;51.374;-0.176;2024-01-11T10:07:40;14;14;
82667;PMS5003;72691;51.374;-0.176;2024-01-11T10:10:05;11;11;
82667;PMS5003;72691;51.374;-0.176;2024-01-11T10:12:30;17;13;
82667;PMS5003;72691;51.374;-0.176;2024-01-11T10:14:59;13;13;
82667;PMS5003;72691;51.374;-0.176;2024-01-11T10:17:21;13;12;
82667;PMS5003;72691;51.374;-0.176;2024-01-11T10:19:46;13;13;
82667;PMS5003;72691;51.374;-0.176;2024-01-11T10:22:11;16;16;
82667;PMS5003;72691;51.374;-0.176;2024-01-11T10:24:37;15;15;
82667;PMS5003;72691;51.374;-0.176;2024-01-11T10:27:03;17;16;
82667;PMS5003;72691;51.374;-0.176;2024-01-11T10:29:28;12;12;
82667;PMS5003;72691;51.374;-0.176;2024-01-11T10:31:54;15;15;
82667;PMS5003;72691;51.374;-0.176;2024-01-11T10:34:19;12;12;
82667;PMS5003;72691;51.374;-0.176;2024-01-11T10:36:44;14;14;
82667;PMS5003;72691;51.374;-0.176;2024-01-11T10:39:09;14;13;
82667;PMS5003;72691;51.374;-0.176;2024-01-11T10:41:37;14;14;
82667;PMS5003;72691;51.374;-0.176;2024-01-11T10:44:00;14;14;
82667;PMS5003;72691;51.374;-0.176;2024-01-11T10:46:26;14;13;
82667;PMS5003;72691;51.374;-0.176;2024-01-11T10:48:53;14;12;
82667;PMS5003;72691;51.374;-0.176;2024-01-11T10:51:16;15;14;
82667;PMS5003;72691;51.374;-0.176;2024-01-11T10:53:43;13;13;
82667;PMS5003;72691;51.374;-0.176;2024-01-11T10:56:07;12;12;
82667;PMS5003;72691;51.374;-0.176;2024-01-11T10:58:33;14;14;
82667;PMS5003;72691;51.374;-0.176;2024-01-11T11:00:59;13;13;
82667;PMS5003;72691;51.374;-0.176;2024-01-11T11:03:23;14;13;
82667;PMS5003;72691;51.374;-0.176;2024-01-11T11:05:50;14;14;
82667;PMS5003;72691;51.374;-0.176;2024-01-11T11:08:14;13;11;
82667;PMS5003;72691;51.374;-0.176;2024-01-11T11:10:40;9;9;
82667;PMS5003;72691;51.374;-0.176;2024-01-11T11:13:06;15;13;
82667;PMS5003;72691;51.374;-0.176;2024-01-11T11:15:31;9;9;
82667;PMS5003;72691;51.374;-0.176;2024-01-11T11:17:57;11;9;
82667;PMS5003;72691;51.374;-0.176;2024-01-11T11:20:22;11;11;
82667;PMS5003;72691;51.374;-0.176;2024-01-11T11:22:48;11;9;
82667;PMS5003;72691;51.374;-0.176;2024-01-11T11:27:39;11;9;
82667;PMS5003;72691;51.374;-0.176;2024-01-11T11:30:05;11;8;
82667;PMS5003;72691;51.374;-0.176;2024-01-11T11:32:35;13;13;
82667;PMS5003;72691;51.374;-0.176;2024-01-11T11:34:55;12;12;
82667;PMS5003;72691;51.374;-0.176;2024-01-11T11:37:22;11;11;
82667;PMS5003;72691;51.374;-0.176;2024-01-11T11:39:46;12;11;
82667;PMS5003;72691;51.374;-0.176;2024-01-11T11:42:11;12;11;
82667;PMS5003;72691;51.374;-0.176;2024-01-11T11:51:53;11;11;
82667;PMS5003;72691;51.374;-0.176;2024-01-11T11:54:19;11;11;
82667;PMS5003;72691;51.374;-0.176;2024-01-11T11:56:44;9;9;
82667;PMS5003;72691;51.374;-0.176;2024-01-11T11:59:09;12;9;
82667;PMS5003;72691;51.374;-0.176;2024-01-11T12:01:35;10;10;
82667;PMS5003;72691;51.374;-0.176;2024-01-11T12:04:00;12;9;
82667;PMS5003;72691;51.374;-0.176;2024-01-11T12:06:26;13;11;
82667;PMS5003;72691;51.374;-0.176;2024-01-11T12:08:52;11;11;
82667;PMS5003;72691;51.374;-0.176;2024-01-11T12:11:17;8;8;
82667;PMS5003;72691;51.374;-0.176;2024-01-11T12:13:42;9;8;
82667;PMS5003;72691;51.374;-0.176;2024-01-11T12:16:08;8;8;
82667;PMS5003;72691;51.374;-0.176;2024-01-11T12:18:33;8;8;
82667;PMS5003;72691;51.374;-0.176;2024-01-11T12:20:59;9;9;
82667;PMS5003;72691;51.374;-0.176;2024-01-11T12:23:24;9;9;
82667;PMS5003;72691;51.374;-0.176;2024-01-11T12:25:50;8;8;
82667;PMS5003;72691;51.374;-0.176;2024-01-11T12:28:15;11;10;
82667;PMS5003;72691;51.374;-0.176;2024-01-11T12:30:40;10;8;
82667;PMS5003;72691;51.374;-0.176;2024-01-11T12:33:05;10;10;
82667;PMS5003;72691;51.374;-0.176;2024-01-11T12:35:31;8;8;
82667;PMS5003;72691;51.374;-0.176;2024-01-11T12:37:58;10;10;
82667;PMS5003;72691;51.374;-0.176;2024-01-11T12:40:22;8;8;
82667;PMS5003;72691;51.374;-0.176;2024-01-11T12:42:48;7;6;
82667;PMS5003;72691;51.374;-0.176;2024-01-11T12:45:13;11;7;
82667;PMS5003;72691;51.374;-0.176;2024-01-11T12:47:38;10;10;
82667;PMS5003;72691;51.374;-0.176;2024-01-11T12:50:04;6;6;
82667;PMS5003;72691;51.374;-0.176;2024-01-11T12:52:29;7;7;
82667;PMS5003;72691;51.374;-0.176;2024-01-11T12:54:56;6;6;
82667;PMS5003;72691;51.374;-0.176;2024-01-11T12:57:20;6;5;
82667;PMS5003;72691;51.374;-0.176;2024-01-11T12:59:46;9;7;
82667;PMS5003;72691;51.374;-0.176;2024-01-11T13:02:12;6;5;
82667;PMS5003;72691;51.374;-0.176;2024-01-11T13:04:37;9;7;
82667;PMS5003;72691;51.374;-0.176;2024-01-11T13:07:02;5;5;
82667;PMS5003;72691;51.374;-0.176;2024-01-11T13:09:28;5;5;
82667;PMS5003;72691;51.374;-0.176;2024-01-11T13:11:53;7;6;
82667;PMS5003;72691;51.374;-0.176;2024-01-11T13:14:19;7;7;
82667;PMS5003;72691;51.374;-0.176;2024-01-11T13:16:44;7;7;
82667;PMS5003;72691;51.374;-0.176;2024-01-11T13:19:10;6;6;
82667;PMS5003;72691;51.374;-0.176;2024-01-11T13:21:35;10;10;
82667;PMS5003;72691;51.374;-0.176;2024-01-11T13:24:01;32;30;
82667;PMS5003;72691;51.374;-0.176;2024-01-11T13:26:26;13;13;
82667;PMS5003;72691;51.374;-0.176;2024-01-11T13:28:52;7;7;
82667;PMS5003;72691;51.374;-0.176;2024-01-11T13:31:17;7;7;
82667;PMS5003;72691;51.374;-0.176;2024-01-11T13:33:44;7;7;
82667;PMS5003;72691;51.374;-0.176;2024-01-11T13:36:08;11;11;
82667;PMS5003;72691;51.374;-0.176;2024-01-11T13:38:34;8;8;
82667;PMS5003;72691;51.374;-0.176;2024-01-11T13:40:59;8;8;
82667;PMS5003;72691;51.374;-0.176;2024-01-11T13:43:25;10;7;
82667;PMS5003;72691;51.374;-0.176;2024-01-11T13:45:50;11;11;
82667;PMS5003;72691;51.374;-0.176;2024-01-11T13:48:20;10;10;
82667;PMS5003;72691;51.374;-0.176;2024-01-11T13:50:41;10;8;
82667;PMS5003;72691;51.374;-0.176;2024-01-11T13:53:06;12;11;
82667;PMS5003;72691;51.374;-0.176;2024-01-11T13:55:32;12;12;
82667;PMS5003;72691;51.374;-0.176;2024-01-11T13:57:58;11;10;
82667;PMS5003;72691;51.374;-0.176;2024-01-11T14:00:23;10;10;
82667;PMS5003;72691;51.374;-0.176;2024-01-11T14:02:49;9;9;
82667;PMS5003;72691;51.374;-0.176;2024-01-11T14:05:14;9;7;
82667;PMS5003;72691;51.374;-0.176;2024-01-11T14:07:40;9;9;
82667;PMS5003;72691;51.374;-0.176;2024-01-11T14:10:06;9;9;
82667;PMS5003;72691;51.374;-0.176;2024-01-11T14:12:31;7;7;
82667;PMS5003;72691;51.374;-0.176;2024-01-11T14:14:56;11;10;
82667;PMS5003;72691;51.374;-0.176;2024-01-11T14:17:22;8;8;
82667;PMS5003;72691;51.374;-0.176;2024-01-11T14:19:47;6;6;
82667;PMS5003;72691;51.374;-0.176;2024-01-11T14:22:13;7;7;
82667;PMS5003;72691;51.374;-0.176;2024-01-11T14:24:39;7;7;
82667;PMS5003;72691;51.374;-0.176;2024-01-11T14:27:05;8;8;
82667;PMS5003;72691;51.374;-0.176;2024-01-11T14:29:30;7;7;
82667;PMS5003;72691;51.374;-0.176;2024-01-11T14:31:55;10;10;
82667;PMS5003;72691;51.374;-0.176;2024-01-11T14:34:21;7;7;
82667;PMS5003;72691;51.374;-0.176;2024-01-11T14:36:46;8;7;
82667;PMS5003;72691;51.374;-0.176;2024-01-11T14:39:12;7;7;
82667;PMS5003;72691;51.374;-0.176;2024-01-11T14:41:37;7;7;
82667;PMS5003;72691;51.374;-0.176;2024-01-11T14:44:03;10;8;
82667;PMS5003;72691;51.374;-0.176;2024-01-11T14:46:28;10;9;
82667;PMS5003;72691;51.374;-0.176;2024-01-11T14:48:54;7;7;
82667;PMS5003;72691;51.374;-0.176;2024-01-11T14:51:19;7;7;
82667;PMS5003;72691;51.374;-0.176;2024-01-11T14:53:45;7;6;
82667;PMS5003;72691;51.374;-0.176;2024-01-11T14:56:10;10;10;
82667;PMS5003;72691;51.374;-0.176;2024-01-11T14:58:36;7;7;
82667;PMS5003;72691;51.374;-0.176;2024-01-11T15:01:01;6;6;
82667;PMS5003;72691;51.374;-0.176;2024-01-11T15:03:27;5;3;
82667;PMS5003;72691;51.374;-0.176;2024-01-11T15:05:57;3;3;
82667;PMS5003;72691;51.374;-0.176;2024-01-11T15:08:18;10;7;
82667;PMS5003;72691;51.374;-0.176;2024-01-11T15:10:43;8;8;
82667;PMS5003;72691;51.374;-0.176;2024-01-11T15:13:09;6;6;
82667;PMS5003;72691;51.374;-0.176;2024-01-11T15:15:34;10;10;
82667;PMS5003;72691;51.374;-0.176;2024-01-11T15:18:00;11;11;
82667;PMS5003;72691;51.374;-0.176;2024-01-11T15:20:25;9;9;
82667;PMS5003;72691;51.374;-0.176;2024-01-11T15:22:51;9;9;
82667;PMS5003;72691;51.374;-0.176;2024-01-11T15:25:16;10;10;
82667;PMS5003;72691;51.374;-0.176;2024-01-11T15:27:42;12;12;
82667;PMS5003;72691;51.374;-0.176;2024-01-11T15:30:08;11;11;
82667;PMS5003;72691;51.374;-0.176;2024-01-11T15:32:33;10;8;
82667;PMS5003;72691;51.374;-0.176;2024-01-11T15:34:59;11;11;
82667;PMS5003;72691;51.374;-0.176;2024-01-11T15:37:24;8;8;
82667;PMS5003;72691;51.374;-0.176;2024-01-11T15:39:50;8;8;
82667;PMS5003;72691;51.374;-0.176;2024-01-11T15:42:15;6;6;
82667;PMS5003;72691;51.374;-0.176;2024-01-11T15:44:41;6;6;
82667;PMS5003;72691;51.374;-0.176;2024-01-11T15:47:06;7;7;
82667;PMS5003;72691;51.374;-0.176;2024-01-11T15:49:32;7;7;
82667;PMS5003;72691;51.374;-0.176;2024-01-11T15:51:57;7;7;
82667;PMS5003;72691;51.374;-0.176;2024-01-11T15:54:23;6;6;
82667;PMS5003;72691;51.374;-0.176;2024-01-11T15:56:48;8;8;
82667;PMS5003;72691;51.374;-0.176;2024-01-11T15:59:14;10;9;
82667;PMS5003;72691;51.374;-0.176;2024-01-11T16:01:39;8;8;
82667;PMS5003;72691;51.374;-0.176;2024-01-11T16:04:05;8;8;
82667;PMS5003;72691;51.374;-0.176;2024-01-11T16:06:30;7;7;
82667;PMS5003;72691;51.374;-0.176;2024-01-11T16:08:56;12;12;